Time;durP1;ratioP1;P1;durP2;ratioP2;P2;SDS_P1;SDS_P2;PMS_P1;PMS_P2;Temp;Humidity;BMP_temperature;BMP_pressure;BME280_temperature;BME280_humidity;BME280_pressure;Samples;Min_cycle;Max_cycle;Signal;HPM_P1;HPM_P2
2022/05/15 00:00:42;;;;;;;5.37;2.60;;;;;;;11.91;64.44;99266.94;1759718;81;21437;-64
2022/05/15 00:03:16;;;;;;;6.62;2.42;;;;;;;11.88;64.28;99273.95;1766591;81;20988;-62
2022/05/15 00:05:45;;;;;;;5.15;2.65;;;;;;;11.85;64.21;99273.25;1758982;81;20989;-65
2022/05/15 00:08:12;;;;;;;9.48;2.47;;;;;;;11.81;64.14;99267.59;1735435;81;21077;-66
2022/05/15 00:10:41;;;;;;;7.80;2.77;;;;;;;11.77;64.15;99268.59;1751082;81;20979;-66
2022/05/15 00:13:09;;;;;;;5.72;2.80;;;;;;;11.73;64.17;99265.69;1761131;80;21036;-68
2022/05/15 00:15:38;;;;;;;8.83;2.98;;;;;;;11.74;64.25;99269.23;1758733;81;20993;-69
2022/05/15 00:18:04;;;;;;;10.80;2.90;;;;;;;11.73;64.18;99263.49;1760180;81;21461;-65
2022/05/15 00:20:31;;;;;;;9.48;3.35;;;;;;;11.73;64.07;99266.25;1765207;81;20995;-65
2022/05/15 00:22:58;;;;;;;7.30;2.90;;;;;;;11.73;63.96;99271.22;1761352;81;21035;-63
2022/05/15 00:25:25;;;;;;;7.42;3.02;;;;;;;11.67;63.90;99269.77;1764780;81;21433;-69
2022/05/15 00:27:53;;;;;;;8.10;3.37;;;;;;;11.59;63.96;99272.01;1759142;81;20905;-65
2022/05/15 00:30:21;;;;;;;10.32;3.70;;;;;;;11.51;64.16;99270.92;1760387;81;20987;-69
2022/05/15 00:32:49;;;;;;;7.35;3.95;;;;;;;11.43;64.37;99264.29;1759085;81;21468;-66
2022/05/15 00:35:15;;;;;;;11.28;3.67;;;;;;;11.36;64.54;99270.33;1760576;81;20941;-69
2022/05/15 00:37:43;;;;;;;14.50;4.37;;;;;;;11.31;64.87;99260.89;1760498;81;20900;-62
2022/05/15 00:40:12;;;;;;;11.48;3.33;;;;;;;11.29;65.11;99263.95;1760927;80;20952;-65
2022/05/15 00:42:38;;;;;;;10.00;4.05;;;;;;;11.30;65.24;99260.63;1763233;81;21404;-66
2022/05/15 00:45:08;;;;;;;9.85;4.25;;;;;;;11.29;65.26;99263.16;1763198;81;21307;-67
2022/05/15 00:47:35;;;;;;;13.58;4.72;;;;;;;11.25;65.41;99262.20;1762196;81;20968;-64
2022/05/15 00:50:06;;;;;;;13.22;4.33;;;;;;;11.26;65.56;99265.21;1767775;81;21030;-67
2022/05/15 00:52:35;;;;;;;12.73;4.85;;;;;;;11.23;65.56;99261.70;1752224;81;21211;-61
2022/05/15 00:55:30;;;;;;;17.12;4.60;;;;;;;11.18;65.64;99265.47;1732326;82;21004;-65
2022/05/15 00:58:01;;;;;;;14.95;4.53;;;;;;;11.17;65.81;99266.02;1730673;82;21123;-64
2022/05/15 01:00:29;;;;;;;12.88;4.50;;;;;;;11.15;65.90;99258.67;1693579;84;21503;-66
2022/05/15 01:03:04;;;;;;;11.75;4.12;;;;;;;11.12;65.97;99261.28;1673346;85;21468;-69
2022/05/15 01:05:34;;;;;;;12.63;4.05;;;;;;;11.08;66.13;99263.33;1726692;82;21047;-65
2022/05/15 01:08:01;;;;;;;13.60;4.03;;;;;;;11.07;66.39;99260.31;1729831;82;21440;-67
2022/05/15 01:10:28;;;;;;;10.95;3.85;;;;;;;11.08;66.47;99261.13;1734355;81;21767;-70
2022/05/15 01:12:57;;;;;;;6.22;3.20;;;;;;;11.08;66.58;99262.50;1727859;82;21047;-62
2022/05/15 01:15:26;;;;;;;10.72;3.87;;;;;;;11.11;66.65;99263.78;1720850;82;20933;-69
2022/05/15 01:17:55;;;;;;;8.25;3.20;;;;;;;11.09;66.71;99258.59;1717794;82;20991;-64
2022/05/15 01:20:26;;;;;;;8.15;2.60;;;;;;;11.09;66.79;99261.36;1718493;82;21664;-68
2022/05/15 01:22:52;;;;;;;8.23;3.42;;;;;;;11.08;66.83;99257.81;1717372;82;21745;-67
2022/05/15 01:25:24;;;;;;;5.72;2.67;;;;;;;11.09;66.89;99255.84;1705544;82;21000;-64
2022/05/15 01:28:14;;;;;;;12.70;3.85;;;;;;;11.08;66.92;99249.54;1731491;82;20986;-65
2022/05/15 01:30:42;;;;;;;10.88;3.02;;;;;;;11.09;66.91;99246.19;1726496;82;21458;-66
2022/05/15 01:33:10;;;;;;;5.03;2.67;;;;;;;11.08;66.89;99244.02;1718159;82;20903;-64
2022/05/15 01:35:36;;;;;;;9.10;2.72;;;;;;;11.08;66.89;99239.07;1731365;82;21129;-66
2022/05/15 01:38:04;;;;;;;5.30;2.52;;;;;;;11.05;66.99;99240.52;1729371;82;21027;-68
2022/05/15 01:40:31;;;;;;;8.98;3.25;;;;;;;11.02;66.93;99226.03;1730739;82;21030;-63
2022/05/15 01:42:59;;;;;;;13.00;3.12;;;;;;;10.97;67.07;99239.20;1714368;82;20996;-67
2022/05/15 01:45:26;;;;;;;11.97;3.58;;;;;;;10.94;67.30;99238.72;1725450;82;21034;-65
2022/05/15 01:47:53;;;;;;;13.20;3.75;;;;;;;10.95;67.41;99228.51;1721871;82;21120;-68
2022/05/15 01:50:21;;;;;;;8.68;2.45;;;;;;;10.97;67.46;99228.17;1732217;82;20968;-67
2022/05/15 01:52:50;;;;;;;6.92;3.12;;;;;;;10.98;67.56;99230.59;1721395;82;20992;-69
2022/05/15 01:55:19;;;;;;;7.78;3.00;;;;;;;10.97;67.64;99235.86;1712837;82;21025;-64
2022/05/15 01:57:46;;;;;;;9.33;3.42;;;;;;;10.96;67.82;99228.73;1728312;82;21071;-63
2022/05/15 02:00:19;;;;;;;9.85;2.85;;;;;;;10.95;67.90;99229.30;1712157;82;21869;-63
2022/05/15 02:02:48;;;;;;;8.33;3.05;;;;;;;10.94;67.97;99228.25;1711613;82;21040;-69
2022/05/15 02:05:15;;;;;;;8.18;3.65;;;;;;;10.94;68.10;99229.63;1737050;82;20990;-64
2022/05/15 02:07:42;;;;;;;13.32;3.22;;;;;;;10.92;68.25;99224.45;1737526;81;21007;-68
2022/05/15 02:10:09;;;;;;;9.20;2.95;;;;;;;10.90;68.44;99224.55;1759688;81;21021;-64
2022/05/15 02:12:37;;;;;;;9.08;3.00;;;;;;;10.86;68.69;99223.02;1760352;81;21241;-65
2022/05/15 02:15:06;;;;;;;7.35;3.70;;;;;;;10.84;68.93;99215.64;1759055;81;21036;-67
2022/05/15 02:17:33;;;;;;;9.90;3.02;;;;;;;10.82;69.16;99211.84;1762975;81;20991;-68
2022/05/15 02:20:00;;;;;;;9.70;4.00;;;;;;;10.80;69.33;99209.97;1762510;81;21605;-70
2022/05/15 02:22:27;;;;;;;8.98;3.67;;;;;;;10.80;69.49;99199.52;1757830;80;20953;-66
2022/05/15 02:24:55;;;;;;;12.37;4.20;;;;;;;10.80;69.59;99205.84;1740344;80;21134;-65
2022/05/15 02:27:22;;;;;;;10.65;4.45;;;;;;;10.79;69.69;99206.17;1748232;80;21072;-68
2022/05/15 02:29:49;;;;;;;9.05;4.40;;;;;;;10.79;69.70;99211.13;1766305;81;21005;-64
2022/05/15 02:32:15;;;;;;;10.28;3.52;;;;;;;10.79;69.81;99213.06;1761888;80;21061;-65
2022/05/15 02:34:42;;;;;;;10.63;3.40;;;;;;;10.79;69.95;99215.82;1752777;80;20891;-69
2022/05/15 02:37:10;;;;;;;7.45;3.42;;;;;;;10.80;70.06;99221.56;1759229;81;21068;-65
2022/05/15 02:39:36;;;;;;;11.95;3.85;;;;;;;10.84;70.15;99218.40;1763421;80;21077;-66
2022/05/15 02:42:04;;;;;;;12.03;4.95;;;;;;;10.86;70.19;99218.88;1749489;80;21054;-69
2022/05/15 02:44:33;;;;;;;14.73;4.35;;;;;;;10.88;70.30;99222.13;1732975;81;21049;-65
2022/05/15 02:46:59;;;;;;;8.65;4.00;;;;;;;10.88;70.29;99234.53;1764461;81;20872;-65
2022/05/15 02:52:12;;;;;;;9.08;3.70;;;;;;;10.78;70.75;99242.56;1764530;81;20955;-66
2022/05/15 02:54:39;;;;;;;11.78;5.05;;;;;;;10.77;71.06;99242.33;1758912;81;21477;-66
2022/05/15 02:57:07;;;;;;;14.63;4.45;;;;;;;10.77;71.32;99244.27;1762633;81;21046;-64
2022/05/15 02:59:34;;;;;;;11.33;3.87;;;;;;;10.77;71.65;99253.91;1744184;81;20980;-63
2022/05/15 03:02:00;;;;;;;6.70;3.95;;;;;;;10.76;71.93;99260.58;1759428;81;21138;-62
2022/05/15 03:04:28;;;;;;;10.15;4.42;;;;;;;10.78;72.19;99254.17;1759226;81;20972;-67
2022/05/15 03:06:55;;;;;;;9.93;3.98;;;;;;;10.80;72.34;99254.07;1763735;80;21014;-63
2022/05/15 03:09:23;;;;;;;8.70;4.10;;;;;;;10.79;72.49;99252.46;1751868;80;21219;-66
2022/05/15 03:11:51;;;;;;;11.03;5.30;;;;;;;10.80;72.71;99254.63;1761541;81;21086;-65
2022/05/15 03:14:17;;;;;;;13.83;4.55;;;;;;;10.81;72.89;99254.89;1767083;81;21460;-64
2022/05/15 03:16:45;;;;;;;18.77;4.58;;;;;;;10.79;73.13;99251.08;1763901;81;21001;-64
2022/05/15 03:19:13;;;;;;;12.58;4.62;;;;;;;10.80;73.29;99248.56;1758893;81;20955;-67
2022/05/15 03:21:39;;;;;;;12.03;4.97;;;;;;;10.81;73.48;99254.89;1761214;81;21055;-64
2022/05/15 03:24:11;;;;;;;10.68;4.30;;;;;;;10.82;73.58;99254.56;1761468;81;20966;-65
2022/05/15 03:26:44;;;;;;;8.90;4.10;;;;;;;10.86;73.62;99252.52;1759083;81;21271;-65
2022/05/15 03:29:13;;;;;;;8.88;4.28;;;;;;;10.87;73.66;99254.13;1740042;81;21067;-69
2022/05/15 03:31:43;;;;;;;5.85;3.83;;;;;;;10.89;73.73;99250.48;1764691;81;20936;-66
2022/05/15 03:34:12;;;;;;;14.55;4.10;;;;;;;10.91;73.88;99249.59;1741745;81;20996;-66
2022/05/15 03:36:40;;;;;;;14.05;4.70;;;;;;;10.93;73.80;99259.16;1759584;81;20988;-70
2022/05/15 03:39:10;;;;;;;10.28;3.92;;;;;;;10.93;73.85;99261.09;1762420;81;21109;-65
2022/05/15 03:41:36;;;;;;;9.15;4.25;;;;;;;10.95;73.88;99254.10;1758847;81;21560;-67
2022/05/15 03:44:06;;;;;;;11.68;4.33;;;;;;;10.98;73.90;99257.34;1759272;81;21087;-65
2022/05/15 03:46:33;;;;;;;10.40;4.30;;;;;;;11.02;74.00;99263.24;1761631;81;21498;-66
2022/05/15 03:49:02;;;;;;;8.10;3.67;;;;;;;11.05;73.72;99261.20;1757851;79;21521;-68
2022/05/15 03:51:30;;;;;;;8.15;3.67;;;;;;;11.03;73.65;99260.75;1756743;80;21167;-65
2022/05/15 03:53:57;;;;;;;9.75;4.20;;;;;;;11.02;73.78;99255.56;1757917;81;21058;-67
2022/05/15 03:59:10;;;;;;;10.82;4.12;;;;;;;11.05;73.80;99257.06;1748601;80;21079;-70
2022/05/15 04:01:38;;;;;;;8.45;3.42;;;;;;;11.06;73.84;99264.78;1731398;81;20920;-68
2022/05/15 04:04:05;;;;;;;10.60;4.33;;;;;;;11.07;73.82;99266.41;1740976;81;21489;-69
2022/05/15 04:06:33;;;;;;;12.43;4.47;;;;;;;11.08;73.86;99277.67;1731881;81;20949;-65
2022/05/15 04:09:01;;;;;;;12.70;4.40;;;;;;;11.06;73.89;99277.19;1728799;82;21150;-67
2022/05/15 04:11:29;;;;;;;9.63;3.90;;;;;;;11.03;73.89;99276.47;1751260;81;20964;-63
2022/05/15 04:13:55;;;;;;;11.35;4.62;;;;;;;11.01;73.93;99270.47;1735284;81;21496;-66
2022/05/15 04:16:24;;;;;;;9.03;3.80;;;;;;;10.98;74.08;99271.13;1746068;81;21758;-68
2022/05/15 04:18:50;;;;;;;8.83;4.47;;;;;;;10.96;74.15;99274.22;1749642;81;21027;-63
2022/05/15 04:21:16;;;;;;;12.68;4.62;;;;;;;10.90;74.18;99272.20;1736366;80;21123;-68
2022/05/15 04:23:44;;;;;;;14.95;4.08;;;;;;;10.88;74.35;99281.95;1750457;80;20956;-68
2022/05/15 04:26:10;;;;;;;9.88;4.53;;;;;;;10.90;74.73;99281.05;1737684;81;21012;-66
2022/05/15 04:28:36;;;;;;;12.98;4.72;;;;;;;10.94;74.77;99280.62;1743417;81;21103;-70
2022/05/15 04:31:03;;;;;;;11.83;4.53;;;;;;;10.95;74.69;99272.02;1738236;81;21154;-66
2022/05/15 04:33:30;;;;;;;9.60;3.85;;;;;;;10.98;74.69;99273.89;1760597;80;20980;-65
2022/05/15 04:35:56;;;;;;;7.00;3.47;;;;;;;11.03;74.72;99271.77;1735296;81;21008;-64
2022/05/15 04:38:23;;;;;;;7.60;4.08;;;;;;;11.06;74.67;99273.87;1708620;83;21012;-64
2022/05/15 04:40:50;;;;;;;10.95;4.58;;;;;;;11.10;74.65;99265.75;1710260;83;21139;-68
2022/05/15 04:43:17;;;;;;;10.70;3.90;;;;;;;11.14;74.48;99260.39;1711380;83;21218;-66
2022/05/15 04:45:44;;;;;;;9.03;4.25;;;;;;;11.19;74.41;99265.72;1748039;81;21066;-66
2022/05/15 04:48:10;;;;;;;6.17;3.95;;;;;;;11.25;74.27;99262.20;1731546;82;21427;-66
2022/05/15 04:50:38;;;;;;;9.80;3.77;;;;;;;11.29;74.23;99261.78;1738577;81;21120;-68
2022/05/15 04:53:05;;;;;;;11.43;3.62;;;;;;;11.33;73.98;99259.97;1688916;84;21758;-67
2022/05/15 04:55:33;;;;;;;15.85;4.30;;;;;;;11.37;73.76;99267.01;1729219;82;21690;-68
2022/05/15 04:58:01;;;;;;;13.08;3.67;;;;;;;11.40;73.85;99264.96;1730730;82;21494;-70
2022/05/15 05:00:28;;;;;;;8.88;2.80;;;;;;;11.47;74.00;99269.40;1730990;82;21504;-65
2022/05/15 05:02:56;;;;;;;9.28;3.85;;;;;;;11.57;73.92;99266.83;1722149;81;21024;-66
2022/05/15 05:05:23;;;;;;;16.50;3.92;;;;;;;11.61;73.42;99278.02;1758743;80;21130;-63
2022/05/15 05:07:50;;;;;;;10.70;3.80;;;;;;;11.62;73.34;99276.86;1753371;81;22121;-67
2022/05/15 05:10:18;;;;;;;12.23;3.83;;;;;;;11.69;73.32;99279.91;1754616;81;21533;-64
2022/05/15 05:12:45;;;;;;;18.90;4.42;;;;;;;11.81;73.49;99281.39;1760547;81;20968;-68
2022/05/15 05:15:13;;;;;;;12.03;4.08;;;;;;;11.96;73.13;99274.24;1761863;81;20841;-67
2022/05/15 05:17:41;;;;;;;9.90;3.72;;;;;;;12.08;72.70;99270.16;1749882;81;21098;-69
2022/05/15 05:20:10;;;;;;;12.43;3.83;;;;;;;12.22;72.55;99279.59;1726490;81;21503;-68
2022/05/15 05:22:37;;;;;;;8.70;3.10;;;;;;;12.34;72.40;99277.46;1749301;81;21027;-68
2022/05/15 05:25:08;;;;;;;7.90;4.25;;;;;;;12.45;71.99;99283.95;1751747;81;21476;-70
2022/05/15 05:27:37;;;;;;;13.58;4.17;;;;;;;12.52;71.22;99278.11;1757943;81;21067;-68
2022/05/15 05:30:06;;;;;;;11.08;3.47;;;;;;;12.59;71.14;99280.91;1721259;81;21195;-69
2022/05/15 05:32:35;;;;;;;16.20;3.87;;;;;;;12.63;70.86;99279.07;1746808;81;21054;-67
2022/05/15 05:35:02;;;;;;;10.65;3.65;;;;;;;12.67;70.84;99273.11;1749235;81;21008;-69
2022/05/15 05:37:31;;;;;;;6.17;2.67;;;;;;;12.72;70.18;99276.22;1750548;81;21551;-70
2022/05/15 05:39:58;;;;;;;8.23;3.72;;;;;;;12.74;69.99;99276.70;1728657;82;20983;-68
2022/05/15 05:42:27;;;;;;;8.53;3.27;;;;;;;12.76;69.57;99276.58;1743981;81;21219;-67
2022/05/15 05:44:56;;;;;;;10.55;3.70;;;;;;;12.77;69.55;99277.39;1759877;81;21015;-68
2022/05/15 05:47:27;;;;;;;8.85;4.25;;;;;;;12.77;69.46;99282.36;1760817;81;20984;-70
2022/05/15 05:49:54;;;;;;;11.05;3.12;;;;;;;12.76;68.99;99283.48;1762074;81;20998;-69
2022/05/15 05:52:36;;;;;;;9.00;3.47;;;;;;;12.76;68.92;99291.78;1758143;81;21011;-68
2022/05/15 05:54:54;;;;;;;8.55;3.72;;;;;;;12.77;69.11;99285.69;1755489;81;20996;-65
2022/05/15 05:57:23;;;;;;;10.30;3.10;;;;;;;12.80;69.06;99283.62;1764316;81;20940;-70
2022/05/15 05:59:53;;;;;;;8.55;3.35;;;;;;;12.84;69.11;99293.42;1759333;80;20984;-70
2022/05/15 06:02:20;;;;;;;7.75;3.50;;;;;;;12.86;69.01;99286.98;1767623;81;21161;-66
2022/05/15 06:04:50;;;;;;;14.50;3.92;;;;;;;12.92;69.21;99293.09;1761290;80;21094;-68
2022/05/15 06:07:22;;;;;;;10.85;3.47;;;;;;;12.93;68.84;99291.36;1760489;81;21072;-65
2022/05/15 06:09:49;;;;;;;13.43;3.75;;;;;;;12.90;68.71;99294.25;1759354;81;20916;-70
2022/05/15 06:12:20;;;;;;;9.35;3.80;;;;;;;12.84;68.27;99299.77;1759177;81;21090;-71
2022/05/15 06:14:49;;;;;;;10.95;3.30;;;;;;;12.76;68.22;99299.29;1759226;81;20977;-69
2022/05/15 06:17:18;;;;;;;16.62;3.67;;;;;;;12.68;68.43;99301.53;1760875;81;21146;-66
2022/05/15 06:19:46;;;;;;;8.45;3.42;;;;;;;12.65;68.71;99296.12;1740523;81;21111;-69
2022/05/15 06:22:13;;;;;;;7.22;3.22;;;;;;;12.65;69.16;99291.41;1759201;81;20909;-68
2022/05/15 06:24:41;;;;;;;8.10;2.75;;;;;;;12.69;69.21;99294.31;1760277;81;21468;-66
2022/05/15 06:27:12;;;;;;;7.70;3.45;;;;;;;12.72;69.19;99288.66;1763644;81;21000;-67
2022/05/15 06:29:39;;;;;;;9.13;3.70;;;;;;;12.75;69.41;99294.33;1765188;81;20912;-66
2022/05/15 06:32:07;;;;;;;9.73;3.22;;;;;;;12.82;69.61;99291.00;1760286;81;21428;-67
2022/05/15 06:34:35;;;;;;;7.28;3.00;;;;;;;12.89;69.63;99284.92;1759197;81;20917;-71
2022/05/15 06:37:05;;;;;;;4.58;2.50;;;;;;;12.97;69.54;99281.25;1759661;81;21032;-69
2022/05/15 06:39:32;;;;;;;10.98;2.72;;;;;;;13.06;69.33;99283.92;1759450;80;20944;-68
2022/05/15 06:42:00;;;;;;;8.20;2.60;;;;;;;13.12;69.28;99281.16;1760945;81;20983;-68
2022/05/15 06:44:38;;;;;;;10.08;2.67;;;;;;;13.22;69.43;99281.28;1759069;81;21175;-68
2022/05/15 06:47:05;;;;;;;9.18;3.65;;;;;;;13.30;68.99;99282.34;1758684;81;21079;-67
2022/05/15 06:49:32;;;;;;;10.08;3.52;;;;;;;13.35;68.31;99280.73;1764760;81;21513;-67
2022/05/15 06:52:00;;;;;;;5.20;2.65;;;;;;;13.35;68.08;99277.16;1764600;81;20952;-66
2022/05/15 06:54:29;;;;;;;12.50;3.55;;;;;;;13.37;68.05;99279.80;1759142;81;21004;-66
2022/05/15 06:59:42;;;;;;;10.05;3.10;;;;;;;13.42;68.15;99282.11;1756916;81;20945;-70
2022/05/15 07:02:08;;;;;;;7.85;2.52;;;;;;;13.48;67.98;99274.63;1764397;81;20901;-71
2022/05/15 07:04:35;;;;;;;8.20;3.08;;;;;;;13.56;67.73;99272.13;1763927;81;21404;-68
2022/05/15 07:07:03;;;;;;;9.15;2.60;;;;;;;13.65;67.69;99269.23;1758655;80;21062;-70
2022/05/15 07:09:35;;;;;;;10.20;2.92;;;;;;;13.74;68.23;99262.98;1743485;81;21338;-71
2022/05/15 07:12:06;;;;;;;6.83;2.22;;;;;;;13.92;68.49;99259.97;1759741;81;21639;-68
2022/05/15 07:14:35;;;;;;;5.25;2.47;;;;;;;14.12;67.92;99258.97;1764932;81;21031;-69
2022/05/15 07:17:02;;;;;;;9.33;2.80;;;;;;;14.31;67.92;99254.77;1750360;80;21013;-69
2022/05/15 07:19:29;;;;;;;8.50;3.10;;;;;;;14.53;66.87;99254.58;1759048;81;20972;-66
2022/05/15 07:21:56;;;;;;;10.68;2.87;;;;;;;14.71;66.82;99248.94;1758960;81;21824;-67
2022/05/15 07:24:23;;;;;;;9.35;2.77;;;;;;;14.94;66.22;99250.34;1758973;81;20912;-69
2022/05/15 07:26:50;;;;;;;6.55;2.10;;;;;;;15.14;65.42;99253.20;1758599;81;21055;-66
2022/05/15 07:29:20;;;;;;;7.65;2.80;;;;;;;15.25;64.39;99254.27;1759317;81;20960;-70
2022/05/15 07:31:51;;;;;;;14.70;2.67;;;;;;;15.27;63.76;99252.55;1758847;80;20826;-68
2022/05/15 07:34:21;;;;;;;12.03;2.83;;;;;;;15.32;63.63;99252.26;1760938;81;21248;-66
2022/05/15 07:36:52;;;;;;;8.25;2.40;;;;;;;15.38;62.78;99245.29;1759213;81;20885;-70
2022/05/15 07:39:20;;;;;;;14.65;2.87;;;;;;;15.47;62.96;99236.78;1763072;81;21016;-70
2022/05/15 07:41:48;;;;;;;8.83;2.50;;;;;;;15.62;62.27;99239.87;1758631;81;21504;-67
2022/05/15 07:44:16;;;;;;;10.50;2.77;;;;;;;15.75;61.20;99233.03;1758657;81;20904;-67
2022/05/15 07:46:42;;;;;;;13.58;2.77;;;;;;;15.89;61.57;99228.96;1761864;81;21221;-70
2022/05/15 07:49:09;;;;;;;7.80;2.70;;;;;;;16.00;59.58;99238.36;1764641;81;21047;-68
2022/05/15 07:51:35;;;;;;;10.00;3.05;;;;;;;15.96;58.73;99227.73;1766561;81;21064;-67
2022/05/15 07:54:03;;;;;;;9.95;3.02;;;;;;;15.89;58.30;99238.11;1760373;81;21043;-71
2022/05/15 07:56:32;;;;;;;7.40;2.15;;;;;;;15.77;58.42;99237.65;1741165;81;20981;-71
2022/05/15 07:58:59;;;;;;;8.48;2.52;;;;;;;15.68;58.75;99233.68;1765464;81;21081;-71
2022/05/15 08:01:31;;;;;;;4.65;2.33;;;;;;;15.61;58.51;99233.51;1758046;81;20967;-70
2022/05/15 08:04:02;;;;;;;11.25;2.75;;;;;;;15.54;58.01;99234.15;1759122;81;20971;-67
2022/05/15 08:09:17;;;;;;;13.62;2.83;;;;;;;15.43;58.27;99245.59;1762912;81;21042;-70
2022/05/15 08:11:46;;;;;;;9.75;2.67;;;;;;;15.33;58.28;99249.72;1760102;81;21029;-67
2022/05/15 08:14:12;;;;;;;12.47;1.98;;;;;;;15.26;58.73;99242.03;1764063;81;21102;-71
2022/05/15 08:16:39;;;;;;;4.05;1.67;;;;;;;15.28;58.93;99239.70;1761472;81;21000;-67
2022/05/15 08:24:39;;;;;;;7.50;2.35;;;;;;;15.61;56.49;99225.78;1709734;81;21168;-71
2022/05/15 08:27:09;;;;;;;11.83;2.52;;;;;;;15.67;54.88;99226.53;1761302;81;21028;-67
2022/05/15 08:29:38;;;;;;;10.05;2.50;;;;;;;15.68;53.18;99220.37;1758450;81;20999;-66
2022/05/15 08:32:07;;;;;;;11.05;1.90;;;;;;;15.63;53.38;99229.80;1761135;81;20929;-69
2022/05/15 08:34:36;;;;;;;9.23;2.72;;;;;;;15.58;53.26;99230.89;1748386;81;21055;-68
2022/05/15 08:37:04;;;;;;;4.80;2.15;;;;;;;15.53;52.96;99228.39;1758850;81;20999;-70
2022/05/15 08:39:33;;;;;;;9.05;2.60;;;;;;;15.49;53.17;99227.48;1759364;81;21484;-69
2022/05/15 08:42:25;;;;;;;21.15;2.62;;;;;;;15.47;53.23;99230.41;1761862;81;20948;-68
2022/05/15 08:44:56;;;;;;;13.13;2.10;;;;;;;15.43;53.29;99228.94;1765897;81;21482;-70
2022/05/15 08:47:34;;;;;;;10.00;2.58;;;;;;;15.41;53.87;99225.13;1762291;81;21038;-69
2022/05/15 08:50:11;;;;;;;6.92;2.00;;;;;;;15.46;54.12;99226.82;1761675;81;21180;-67
2022/05/15 08:53:02;;;;;;;6.33;2.00;;;;;;;15.54;53.84;99223.04;1762043;80;20963;-68
2022/05/15 08:55:38;;;;;;;15.60;4.17;;;;;;;15.67;53.99;99231.27;1759532;81;21051;-67
2022/05/15 08:58:31;;;;;;;10.28;2.58;;;;;;;15.88;54.09;99228.15;1759138;80;21524;-68
2022/05/15 09:01:01;;;;;;;10.97;2.50;;;;;;;16.08;53.85;99220.45;1759246;81;20988;-67
2022/05/15 09:03:35;;;;;;;8.20;2.20;;;;;;;16.22;52.73;99213.81;1761710;81;20962;-65
2022/05/15 09:06:10;;;;;;;9.55;2.12;;;;;;;16.25;51.74;99221.42;1760042;81;20925;-67
2022/05/15 09:09:11;;;;;;;12.75;2.77;;;;;;;16.22;50.66;99222.73;1762378;81;21036;-67
2022/05/15 09:12:09;;;;;;;4.00;1.80;;;;;;;16.11;50.03;99219.72;1759358;81;21027;-67
2022/05/15 09:15:13;;;;;;;8.20;2.95;;;;;;;16.01;50.17;99223.31;1758925;81;21567;-70
2022/05/15 09:17:58;;;;;;;6.33;1.90;;;;;;;16.01;51.72;99222.50;1759022;81;22185;-71
2022/05/15 09:20:59;;;;;;;5.78;2.12;;;;;;;16.09;51.86;99211.75;1759332;81;20868;-69
2022/05/15 09:23:41;;;;;;;12.40;2.20;;;;;;;16.26;51.81;99213.29;1760635;81;20941;-66
2022/05/15 09:26:27;;;;;;;13.63;2.20;;;;;;;16.45;50.09;99220.00;1760071;81;21035;-70
2022/05/15 09:29:01;;;;;;;8.30;2.10;;;;;;;16.52;50.04;99208.21;1764150;81;21038;-66
2022/05/15 09:31:40;;;;;;;6.85;2.33;;;;;;;16.54;49.34;99212.25;1760957;81;21028;-66
2022/05/15 09:34:30;;;;;;;6.83;2.08;;;;;;;16.52;49.10;99209.60;1759641;81;20900;-69
2022/05/15 09:39:49;;;;;;;11.35;2.60;;;;;;;16.34;47.95;99207.30;1760183;81;20928;-69
2022/05/15 09:45:23;;;;;;;8.28;2.30;;;;;;;16.34;49.03;99210.66;1766418;80;21094;-66
2022/05/15 09:47:56;;;;;;;5.78;2.08;;;;;;;16.47;50.36;99208.52;1738288;81;20920;-69
2022/05/15 09:50:50;;;;;;;8.03;2.30;;;;;;;16.61;49.27;99201.03;1761638;81;20972;-69
2022/05/15 09:53:43;;;;;;;15.10;2.35;;;;;;;16.68;48.46;99199.78;1758792;81;21036;-69
2022/05/15 09:56:21;;;;;;;9.40;2.20;;;;;;;16.75;47.71;99200.50;1762686;81;21050;-69
2022/05/15 09:59:09;;;;;;;9.38;2.15;;;;;;;16.89;48.08;99202.13;1764069;81;21500;-68
2022/05/15 10:01:44;;;;;;;5.80;2.35;;;;;;;17.05;48.28;99197.02;1760227;81;21043;-68
2022/05/15 10:04:23;;;;;;;9.83;2.08;;;;;;;17.13;48.10;99203.52;1760356;81;21022;-70
2022/05/15 10:07:05;;;;;;;8.10;2.12;;;;;;;17.18;48.59;99206.00;1739290;81;21004;-70
2022/05/15 10:09:40;;;;;;;9.70;2.33;;;;;;;17.25;48.28;99192.78;1760323;81;20869;-69
2022/05/15 10:12:29;;;;;;;10.18;2.45;;;;;;;17.33;48.56;99202.84;1758748;81;21765;-68
2022/05/15 10:14:59;;;;;;;4.83;2.10;;;;;;;17.35;47.53;99199.11;1758921;81;20980;-68
2022/05/15 10:17:26;;;;;;;14.20;2.55;;;;;;;17.37;48.04;99200.13;1758620;80;20861;-69
2022/05/15 10:20:04;;;;;;;10.30;1.72;;;;;;;17.48;48.39;99205.28;1758411;81;21030;-68
2022/05/15 10:22:45;;;;;;;5.53;2.00;;;;;;;17.66;47.88;99197.76;1763722;81;20968;-66
2022/05/15 10:25:25;;;;;;;12.10;2.25;;;;;;;17.79;47.66;99191.97;1764764;81;20957;-68
2022/05/15 10:28:00;;;;;;;8.28;2.15;;;;;;;17.94;47.48;99199.92;1739647;81;20921;-67
2022/05/15 10:30:34;;;;;;;4.40;1.62;;;;;;;18.11;45.71;99197.96;1758288;81;20912;-67
2022/05/15 10:33:11;;;;;;;7.53;2.00;;;;;;;18.13;44.23;99194.82;1762738;81;21481;-70
2022/05/15 10:36:03;;;;;;;9.98;2.40;;;;;;;18.00;44.19;99192.83;1763759;81;21556;-68
2022/05/15 10:38:59;;;;;;;8.28;2.40;;;;;;;17.84;43.87;99188.85;1760980;81;21416;-66
2022/05/15 10:42:07;;;;;;;5.72;1.87;;;;;;;17.76;44.73;99185.96;1764712;81;21039;-69
2022/05/15 10:45:01;;;;;;;12.70;2.75;;;;;;;17.76;44.89;99190.14;1759434;81;21500;-67
2022/05/15 10:47:55;;;;;;;16.48;3.42;;;;;;;17.67;45.33;99190.22;1760591;81;21039;-66
2022/05/15 10:50:54;;;;;;;13.83;2.40;;;;;;;17.59;45.13;99197.07;1759109;81;20916;-70
2022/05/15 10:59:46;;;;;;;16.23;3.25;;;;;;;17.82;46.28;99211.52;1760666;81;21556;-70
2022/05/15 11:02:51;;;;;;;12.18;2.35;;;;;;;17.91;46.77;99211.83;1759581;81;20972;-70
2022/05/15 11:05:31;;;;;;;9.60;1.90;;;;;;;17.98;46.10;99209.14;1761244;81;20928;-65
2022/05/15 11:08:29;;;;;;;11.85;2.17;;;;;;;17.91;46.54;99212.64;1759462;81;20968;-68
2022/05/15 11:11:21;;;;;;;8.45;3.15;;;;;;;17.98;47.57;99210.54;1756196;81;22010;-67
2022/05/15 11:13:53;;;;;;;8.15;3.02;;;;;;;18.25;45.83;99211.28;1761920;81;21067;-66
2022/05/15 11:16:52;;;;;;;10.47;2.50;;;;;;;18.28;46.41;99205.55;1759902;81;21067;-69
2022/05/15 11:19:35;;;;;;;12.98;2.92;;;;;;;18.25;45.96;99210.49;1758818;81;20949;-66
2022/05/15 11:22:31;;;;;;;9.35;2.80;;;;;;;18.13;45.39;99206.75;1761644;80;21224;-67
2022/05/15 11:25:06;;;;;;;11.45;3.15;;;;;;;17.97;45.79;99209.72;1757131;81;20995;-69
2022/05/15 11:27:54;;;;;;;12.70;2.27;;;;;;;17.59;45.68;99208.79;1760641;81;20965;-66
2022/05/15 11:30:39;;;;;;;15.05;3.02;;;;;;;17.42;46.81;99213.72;1760524;81;20988;-66
2022/05/15 11:33:13;;;;;;;7.03;3.02;;;;;;;17.38;47.91;99222.63;1759195;81;20968;-67
2022/05/15 11:35:41;;;;;;;13.25;2.52;;;;;;;17.33;46.83;99209.02;1758661;81;21154;-66
2022/05/15 11:38:23;;;;;;;7.97;2.35;;;;;;;17.31;46.46;99208.59;1762475;81;21024;-70
2022/05/15 11:40:51;;;;;;;11.10;3.00;;;;;;;17.34;46.90;99213.41;1766097;81;21489;-69
2022/05/15 11:43:33;;;;;;;15.25;3.72;;;;;;;17.46;46.24;99204.03;1758925;81;21056;-67
2022/05/15 11:46:09;;;;;;;11.95;2.98;;;;;;;17.50;45.95;99214.66;1762439;81;20905;-71
2022/05/15 11:48:53;;;;;;;10.72;2.60;;;;;;;17.52;45.21;99210.88;1762844;81;21749;-70
2022/05/15 11:51:30;;;;;;;19.90;2.72;;;;;;;17.46;43.51;99210.42;1767067;81;21023;-70
2022/05/15 11:54:02;;;;;;;11.68;2.55;;;;;;;17.30;43.75;99209.78;1761705;81;20995;-71
2022/05/15 11:56:53;;;;;;;8.10;1.92;;;;;;;17.24;44.22;99203.13;1739198;81;21035;-66
2022/05/15 11:59:27;;;;;;;17.05;2.72;;;;;;;17.25;44.75;99212.27;1764632;81;20984;-69
2022/05/15 12:02:03;;;;;;;;;;;;;;;17.26;45.26;99213.28;1762488;81;21852;-66
2022/05/15 12:04:41;;;;;;;12.25;2.85;;;;;;;17.35;43.66;99223.37;1762138;81;20145;-70
2022/05/15 12:07:18;;;;;;;13.05;2.83;;;;;;;17.51;44.15;99213.47;1758850;81;20885;-69
2022/05/15 12:09:49;;;;;;;9.25;2.37;;;;;;;17.61;42.98;99210.61;1762141;81;20988;-69
2022/05/15 12:12:31;;;;;;;11.00;2.72;;;;;;;17.58;43.47;99205.22;1757150;81;21169;-68
2022/05/15 12:15:08;;;;;;;10.55;2.58;;;;;;;17.62;43.14;99194.14;1762979;81;21330;-70
2022/05/15 12:17:44;;;;;;;13.48;2.50;;;;;;;17.61;41.68;99196.69;1755550;81;21071;-67
2022/05/15 12:20:31;;;;;;;12.20;2.55;;;;;;;17.52;42.16;99194.98;1740278;81;21493;-65